Castle Rock, Washington
Current Conditions -  °F | °C
As of 9:55 AM on Tuesday 21 Oct 2014 (Local Time) from KKLS Reporting Station
Overcast Overcast  
Wind Chill: 55°   Ceiling: 7000
Heat Index: 55°   Visibility: 10mi
Dew Point: 48°   Wind: 10mph
Humidity: 77%   Direction: 150°SSE
Pressure: 30"   Gusts: 20mph
Location:  46.28°N, 122.91°W
Report Text: KKLS 211655Z AUTO 15009G17KT 10SM SCT014 SCT020 OVC070 13/09 A3000 RMK AO1
Loading
Personal Weather Stations






























Interactive Weather Map
Tropical Storm Tracking
New forecast layout! Learn more

10-Day Weather Forecast

Advertisements
Track Severe Weather on mobile